createdAt,value
2018-04-08T00:01:41.091Z,97689.86
2018-04-08T00:04:09.930Z,97689.73
2018-04-08T00:06:45.092Z,97684.45
2018-04-08T00:09:15.955Z,97686.33
2018-04-08T00:11:45.344Z,97685.09
2018-04-08T00:14:18.033Z,97682.20
2018-04-08T00:16:58.104Z,97669.95
2018-04-08T00:19:28.954Z,97673.47
2018-04-08T00:21:58.579Z,97667.52
2018-04-08T00:24:28.650Z,97672.52
2018-04-08T00:26:59.146Z,97666.97
2018-04-08T00:29:32.145Z,97674.34
2018-04-08T00:32:08.934Z,97668.64
2018-04-08T00:34:38.656Z,97668.86
2018-04-08T00:37:08.379Z,97667.23
2018-04-08T00:39:38.280Z,97663.23
2018-04-08T00:42:07.773Z,97668.41
2018-04-08T00:44:37.854Z,97668.41
2018-04-08T00:47:07.418Z,97662.83
2018-04-08T00:49:38.644Z,97670.38
2018-04-08T00:52:07.843Z,97666.17
2018-04-08T00:54:38.508Z,97664.72
2018-04-08T00:57:08.622Z,97659.63
2018-04-08T00:59:39.058Z,97651.38
2018-04-08T01:02:08.786Z,97649.82
2018-04-08T01:04:38.709Z,97654.55
2018-04-08T01:07:26.100Z,97653.84
2018-04-08T01:09:55.666Z,97650.05
2018-04-08T01:12:25.798Z,97652.98
2018-04-08T01:14:54.496Z,97646.55
2018-04-08T01:17:26.234Z,97647.38
2018-04-08T01:19:56.709Z,97647.44
2018-04-08T01:22:26.844Z,97647.76
2018-04-08T01:24:58.537Z,97647.05
2018-04-08T01:27:30.598Z,97642.72
2018-04-08T01:29:59.801Z,97639.81
2018-04-08T01:32:30.649Z,97639.19
2018-04-08T01:35:00.270Z,97636.75
2018-04-08T01:37:30.301Z,97634.15
2018-04-08T01:39:59.614Z,97636.36
2018-04-08T01:42:29.139Z,97639.80
2018-04-08T01:44:59.981Z,97642.48
2018-04-08T01:47:29.602Z,97642.36
2018-04-08T01:49:59.736Z,97635.39
2018-04-08T01:52:30.138Z,97631.44
2018-04-08T01:55:00.299Z,97636.54
2018-04-08T01:57:29.668Z,97630.84
2018-04-08T01:59:59.956Z,97630.53
2018-04-08T02:02:29.953Z,97631.18
2018-04-08T02:05:00.128Z,97633.81
2018-04-08T02:07:30.663Z,97638.87
2018-04-08T02:10:00.692Z,97632.66
2018-04-08T02:12:29.562Z,97637.32
2018-04-08T02:15:00.766Z,97638.31
2018-04-08T02:17:29.861Z,97633.86
2018-04-08T02:19:58.969Z,97634.03
2018-04-08T02:22:29.208Z,97632.36
2018-04-08T02:25:03.433Z,97629.02
2018-04-08T02:27:35.715Z,97628.66
2018-04-08T02:30:06.568Z,97634.09
2018-04-08T02:32:36.698Z,97635.19
2018-04-08T02:35:06.405Z,97634.86
2018-04-08T02:37:35.835Z,97633.55
2018-04-08T02:40:07.520Z,97630.19
2018-04-08T02:42:37.642Z,97625.89
2018-04-08T02:45:07.563Z,97625.52
2018-04-08T02:47:38.387Z,97624.73
2018-04-08T02:50:08.784Z,97624.67
2018-04-08T02:52:39.404Z,97625.00
2018-04-08T02:55:09.425Z,97620.98
2018-04-08T02:57:40.274Z,97621.63
2018-04-08T03:03:06.108Z,97617.31
2018-04-08T03:05:36.516Z,97620.90
2018-04-08T03:08:10.227Z,97619.26
2018-04-08T03:10:40.999Z,97619.30
2018-04-08T03:13:13.171Z,97625.38
2018-04-08T03:15:42.819Z,97616.94
2018-04-08T03:18:14.374Z,97619.48
2018-04-08T03:20:47.768Z,97618.16
2018-04-08T03:23:20.158Z,97619.14
2018-04-08T03:25:51.049Z,97621.52
2018-04-08T03:28:21.665Z,97620.69
2018-04-08T03:30:53.808Z,97616.58
2018-04-08T03:33:23.858Z,97618.91
2018-04-08T03:35:57.239Z,97613.36
2018-04-08T03:38:26.989Z,97609.41
2018-04-08T03:40:57.117Z,97610.00
2018-04-08T03:43:28.417Z,97606.97
2018-04-08T03:45:57.489Z,97608.38
2018-04-08T03:48:30.289Z,97611.73
2018-04-08T03:51:00.321Z,97617.88
2018-04-08T03:53:31.865Z,97618.64
2018-04-08T03:56:02.117Z,97622.61
2018-04-08T03:58:33.289Z,97620.31
2018-04-08T04:01:04.531Z,97622.00
2018-04-08T04:03:35.278Z,97615.19
2018-04-08T04:06:05.392Z,97614.11
2018-04-08T04:08:36.670Z,97609.55
2018-04-08T04:11:06.492Z,97604.27
2018-04-08T04:13:36.642Z,97593.78
2018-04-08T04:16:08.948Z,97591.28
2018-04-08T04:18:50.821Z,97591.61
2018-04-08T04:21:34.652Z,97590.59
2018-04-08T04:24:15.482Z,97591.48
2018-04-08T04:26:45.384Z,97590.20
2018-04-08T04:29:17.493Z,97591.19
2018-04-08T04:31:47.505Z,97589.88
2018-04-08T04:34:19.073Z,97589.08
2018-04-08T04:36:49.701Z,97588.56
2018-04-08T04:39:22.474Z,97596.54
2018-04-08T04:41:53.287Z,97583.85
2018-04-08T04:44:23.277Z,97585.56
2018-04-08T04:46:53.310Z,97588.66
2018-04-08T04:49:24.772Z,97585.11
2018-04-08T04:51:55.209Z,97588.66
2018-04-08T04:54:25.445Z,97585.56
2018-04-08T04:56:54.962Z,97583.98
2018-04-08T04:59:24.137Z,97587.34
2018-04-08T05:01:53.588Z,97590.97
2018-04-08T05:04:25.155Z,97593.75
2018-04-08T05:06:59.107Z,97591.55
2018-04-08T05:09:29.117Z,97592.01
2018-04-08T05:12:02.016Z,97598.55
2018-04-08T05:14:33.270Z,97598.61
2018-04-08T05:17:07.807Z,97599.77
2018-04-08T05:19:39.058Z,97603.03
2018-04-08T05:22:13.460Z,97609.50
2018-04-08T05:24:44.754Z,97598.99
2018-04-08T05:27:15.501Z,97604.09
2018-04-08T05:29:47.854Z,97608.20
2018-04-08T05:32:21.001Z,97610.30
2018-04-08T05:34:52.989Z,97604.88
2018-04-08T05:37:24.185Z,97611.02
2018-04-08T05:39:57.631Z,97609.40
2018-04-08T05:42:35.546Z,97611.69
2018-04-08T05:45:06.397Z,97614.89
2018-04-08T05:47:37.465Z,97607.11
2018-04-08T05:50:08.607Z,97606.94
2018-04-08T05:52:38.638Z,97614.55
2018-04-08T05:55:16.037Z,97612.83
2018-04-08T05:57:47.420Z,97613.52
2018-04-08T06:00:18.151Z,97621.83
2018-04-08T06:02:50.053Z,97615.73
2018-04-08T06:05:19.575Z,97615.43
2018-04-08T06:07:49.060Z,97611.53
2018-04-08T06:10:18.171Z,97611.74
2018-04-08T06:12:48.915Z,97613.52
2018-04-08T06:15:18.744Z,97610.02
2018-04-08T06:17:48.374Z,97599.50
2018-04-08T06:20:19.619Z,97589.74
2018-04-08T06:22:49.765Z,97591.73
2018-04-08T06:25:21.638Z,97593.50
2018-04-08T06:27:52.777Z,97598.84
2018-04-08T06:30:26.088Z,97600.70
2018-04-08T06:32:57.461Z,97602.90
2018-04-08T06:35:26.796Z,97602.56
2018-04-08T06:37:58.124Z,97604.25
2018-04-08T06:40:31.390Z,97607.73
2018-04-08T06:43:01.733Z,97605.44
2018-04-08T06:45:31.773Z,97607.03
2018-04-08T06:48:03.116Z,97601.78
2018-04-08T06:50:32.732Z,97609.80
2018-04-08T06:53:05.420Z,97603.28
2018-04-08T06:55:35.568Z,97604.44
2018-04-08T06:58:05.286Z,97598.47
2018-04-08T07:00:35.007Z,97604.64
2018-04-08T07:03:04.729Z,97601.81
2018-04-08T07:05:37.733Z,97598.25
2018-04-08T07:08:07.340Z,97593.77
2018-04-08T07:10:37.994Z,97597.73
2018-04-08T07:13:11.300Z,97590.46
2018-04-08T07:15:40.928Z,97591.84
2018-04-08T07:18:10.906Z,97594.95
2018-04-08T07:20:40.366Z,97595.66
2018-04-08T07:23:10.707Z,97591.03
2018-04-08T07:25:41.464Z,97593.72
2018-04-08T07:28:11.389Z,97587.93
2018-04-08T07:30:41.222Z,97586.05
2018-04-08T07:33:11.042Z,97582.77
2018-04-08T07:35:41.266Z,97582.13
2018-04-08T07:38:12.424Z,97577.30
2018-04-08T07:40:42.465Z,97581.29
2018-04-08T07:43:13.864Z,97574.47
2018-04-08T07:45:43.668Z,97577.10
2018-04-08T07:48:12.781Z,97575.89
2018-04-08T07:50:42.776Z,97577.09
2018-04-08T07:53:12.719Z,97578.89
2018-04-08T07:55:42.424Z,97586.26
2018-04-08T07:58:12.357Z,97579.53
2018-04-08T08:00:42.796Z,97579.20
2018-04-08T08:03:13.064Z,97573.86
2018-04-08T08:05:43.817Z,97570.50
2018-04-08T08:08:13.307Z,97569.36
2018-04-08T08:10:44.657Z,97571.88
2018-04-08T08:13:14.088Z,97572.25
2018-04-08T08:15:45.845Z,97569.36
2018-04-08T08:18:17.340Z,97564.45
2018-04-08T08:20:47.882Z,97560.78
2018-04-08T08:23:18.700Z,97558.83
2018-04-08T08:25:50.266Z,97552.25
2018-04-08T08:28:21.185Z,97547.76
2018-04-08T08:30:50.638Z,97543.95
2018-04-08T08:33:24.265Z,97546.37
2018-04-08T08:36:00.989Z,97542.06
2018-04-08T08:38:31.270Z,97541.91
2018-04-08T08:40:59.799Z,97542.22
2018-04-08T08:43:33.378Z,97543.11
2018-04-08T08:46:03.000Z,97540.94
2018-04-08T08:48:34.203Z,97540.51
2018-04-08T08:51:07.891Z,97544.28
2018-04-08T08:53:39.656Z,97544.14
2018-04-08T08:56:09.365Z,97544.00
2018-04-08T08:58:40.536Z,97545.77
2018-04-08T09:01:10.964Z,97540.32
2018-04-08T09:03:42.446Z,97550.69
2018-04-08T09:06:12.519Z,97549.38
2018-04-08T09:08:45.371Z,97546.08
2018-04-08T09:11:18.749Z,97541.61
2018-04-08T09:13:48.383Z,97535.50
2018-04-08T09:16:18.351Z,97536.55
2018-04-08T09:18:49.467Z,97523.30
2018-04-08T09:24:27.330Z,97516.94
2018-04-08T09:27:02.261Z,97512.48
2018-04-08T09:29:32.393Z,97516.74
2018-04-08T09:32:02.236Z,97514.80
2018-04-08T09:34:32.479Z,97510.78
2018-04-08T09:37:02.396Z,97513.71
2018-04-08T09:39:32.622Z,97507.25
2018-04-08T09:42:03.343Z,97502.78
2018-04-08T09:44:32.973Z,97509.72
2018-04-08T09:47:04.141Z,97509.77
2018-04-08T09:49:34.991Z,97508.80
2018-04-08T09:52:05.648Z,97498.63
2018-04-08T09:54:35.768Z,97499.27
2018-04-08T09:57:07.216Z,97498.84
2018-04-08T09:59:38.662Z,97487.75
2018-04-08T10:05:24.043Z,97488.70
2018-04-08T10:07:54.288Z,97489.64
2018-04-08T10:10:21.793Z,97484.22
2018-04-08T10:12:49.258Z,97485.76
2018-04-08T10:15:16.738Z,97482.09
2018-04-08T10:17:44.238Z,97480.20
2018-04-08T10:20:12.847Z,97484.19
2018-04-08T10:22:40.337Z,97486.18
2018-04-08T10:25:07.928Z,97477.41
2018-04-08T10:27:35.508Z,97476.53
2018-04-08T10:30:02.993Z,97474.07
2018-04-08T10:32:30.478Z,97471.73
2018-04-08T10:34:57.977Z,97468.95
2018-04-08T10:37:25.464Z,97471.83
2018-04-08T10:39:52.967Z,97464.41
2018-04-08T10:42:20.452Z,97464.54
2018-04-08T10:44:47.955Z,97463.29
2018-04-08T10:47:15.434Z,97455.14
2018-04-08T10:49:42.929Z,97454.73
2018-04-08T10:52:10.421Z,97454.33
2018-04-08T10:54:37.880Z,97447.53
2018-04-08T10:57:05.366Z,97442.41
2018-04-08T10:59:32.845Z,97442.33
2018-04-08T11:02:00.352Z,97443.25
2018-04-08T11:04:27.831Z,97438.50
2018-04-08T11:06:55.321Z,97433.33
2018-04-08T11:09:22.924Z,97431.42
2018-04-08T11:11:50.420Z,97419.34
2018-04-08T11:14:18.086Z,97417.57
2018-04-08T11:16:46.759Z,97422.06
2018-04-08T11:19:14.753Z,97415.14
2018-04-08T11:21:42.220Z,97422.86
2018-04-08T11:24:09.687Z,97416.87
2018-04-08T11:26:37.535Z,97410.92
2018-04-08T11:29:05.020Z,97411.76
2018-04-08T11:31:33.598Z,97409.87
2018-04-08T11:34:01.049Z,97403.69
2018-04-08T11:36:28.543Z,97404.35
2018-04-08T11:38:56.050Z,97406.79
2018-04-08T11:41:23.656Z,97392.59
2018-04-08T11:43:51.133Z,97396.41
2018-04-08T11:46:18.654Z,97390.48
2018-04-08T11:48:46.150Z,97387.96
2018-04-08T11:51:13.630Z,97395.09
2018-04-08T11:53:41.149Z,97396.84
2018-04-08T11:56:08.625Z,97388.27
2018-04-08T11:58:36.096Z,97386.42
2018-04-08T12:01:03.565Z,97387.59
2018-04-08T12:03:31.050Z,97381.52
2018-04-08T12:05:58.546Z,97380.58
2018-04-08T12:08:26.025Z,97374.22
2018-04-08T12:10:53.496Z,97370.69
2018-04-08T12:13:21.003Z,97368.67
2018-04-08T12:15:48.479Z,97357.38
2018-04-08T12:18:15.946Z,97359.23
2018-04-08T12:20:43.454Z,97358.88
2018-04-08T12:23:10.910Z,97354.86
2018-04-08T12:25:38.413Z,97341.28
2018-04-08T12:28:05.908Z,97337.70
2018-04-08T12:30:33.386Z,97340.59
2018-04-08T12:33:00.844Z,97343.55
2018-04-08T12:35:29.137Z,97338.46
2018-04-08T12:37:56.640Z,97340.02
2018-04-08T12:40:24.138Z,97332.72
2018-04-08T12:42:51.625Z,97333.58
2018-04-08T12:45:19.103Z,97327.56
2018-04-08T12:47:46.597Z,97323.66
2018-04-08T12:50:14.086Z,97324.66
2018-04-08T12:52:41.559Z,97320.20
2018-04-08T12:55:09.026Z,97320.98
2018-04-08T12:57:36.582Z,97312.34
2018-04-08T13:00:04.062Z,97311.23
2018-04-08T13:02:31.549Z,97315.58
2018-04-08T13:04:59.023Z,97314.80
2018-04-08T13:07:26.549Z,97315.51
2018-04-08T13:09:54.013Z,97304.01
2018-04-08T13:12:21.523Z,97297.45
2018-04-08T13:14:49.022Z,97295.78
2018-04-08T13:17:16.568Z,97290.53
2018-04-08T13:19:44.060Z,97292.78
2018-04-08T13:22:11.533Z,97285.25
2018-04-08T13:24:39.037Z,97275.93
2018-04-08T13:27:06.547Z,97270.19
2018-04-08T13:29:34.030Z,97263.11
2018-04-08T13:32:01.585Z,97264.47
2018-04-08T13:34:29.065Z,97255.77
2018-04-08T13:36:56.540Z,97251.30
2018-04-08T13:39:24.023Z,97247.72
2018-04-08T13:41:51.501Z,97248.59
2018-04-08T13:44:19.004Z,97245.38
2018-04-08T13:46:46.525Z,97245.73
2018-04-08T13:49:14.029Z,97245.32
2018-04-08T13:51:41.669Z,97244.44
2018-04-08T13:54:09.275Z,97238.19
2018-04-08T13:56:36.759Z,97234.77
2018-04-08T13:59:04.238Z,97232.13
2018-04-08T14:01:32.211Z,97227.83
2018-04-08T14:03:59.706Z,97223.80
2018-04-08T14:06:27.212Z,97217.25
2018-04-08T14:08:54.691Z,97217.82
2018-04-08T14:11:22.152Z,97217.38
2018-04-08T14:13:49.737Z,97213.19
2018-04-08T14:16:17.215Z,97214.71
2018-04-08T14:18:44.697Z,97208.67
2018-04-08T14:21:12.174Z,97207.94
2018-04-08T14:23:39.658Z,97207.58
2018-04-08T14:26:07.138Z,97197.84
2018-04-08T14:28:34.623Z,97196.79
2018-04-08T14:31:02.104Z,97198.53
2018-04-08T14:33:29.585Z,97195.05
2018-04-08T14:35:57.072Z,97187.91
2018-04-08T14:38:24.547Z,97187.65
2018-04-08T14:40:52.051Z,97193.55
2018-04-08T14:43:19.501Z,97190.63
2018-04-08T14:45:47.027Z,97186.08
2018-04-08T14:48:14.513Z,97181.27
2018-04-08T14:50:42.048Z,97170.29
2018-04-08T14:53:09.563Z,97175.03
2018-04-08T14:55:37.030Z,97172.79
2018-04-08T14:58:04.525Z,97172.69
2018-04-08T15:00:32.015Z,97175.80
2018-04-08T15:02:59.521Z,97169.30
2018-04-08T15:05:26.988Z,97168.40
2018-04-08T15:07:54.479Z,97164.38
2018-04-08T15:10:21.948Z,97160.03
2018-04-08T15:12:49.461Z,97160.26
2018-04-08T15:15:16.956Z,97157.05
2018-04-08T15:17:50.152Z,97153.39
2018-04-08T15:20:19.647Z,97148.45
2018-04-08T15:22:49.929Z,97143.73
2018-04-08T15:25:19.595Z,97143.91
2018-04-08T15:27:47.877Z,97141.56
2018-04-08T15:30:24.835Z,97138.13
2018-04-08T15:32:54.972Z,97146.88
2018-04-08T15:35:23.654Z,97142.05
2018-04-08T15:37:51.403Z,97146.08
2018-04-08T15:40:19.265Z,97138.06
2018-04-08T15:42:47.106Z,97142.26
2018-04-08T15:45:14.780Z,97139.27
2018-04-08T15:47:48.992Z,97140.21
2018-04-08T15:50:18.246Z,97133.83
2018-04-08T15:52:48.073Z,97138.03
2018-04-08T15:55:15.885Z,97135.81
2018-04-08T15:57:43.867Z,97128.66
2018-04-08T16:00:13.491Z,97132.91
2018-04-08T16:02:42.938Z,97132.88
2018-04-08T16:05:10.609Z,97140.45
2018-04-08T16:07:38.340Z,97147.78
2018-04-08T16:10:06.070Z,97151.02
2018-04-08T16:12:33.656Z,97152.23
2018-04-08T16:15:02.201Z,97148.64
2018-04-08T16:17:29.967Z,97150.45
2018-04-08T16:19:58.520Z,97153.48
2018-04-08T16:22:26.109Z,97157.00
2018-04-08T16:24:54.425Z,97159.19
2018-04-08T16:27:25.124Z,97162.83
2018-04-08T16:29:53.841Z,97164.48
2018-04-08T16:32:21.838Z,97162.36
2018-04-08T16:34:49.350Z,97169.98
2018-04-08T16:37:17.937Z,97175.57
2018-04-08T16:39:45.408Z,97176.11
2018-04-08T16:42:12.929Z,97179.69
2018-04-08T16:44:40.482Z,97173.20
2018-04-08T16:47:07.950Z,97169.64
2018-04-08T16:49:35.436Z,97175.45
2018-04-08T16:52:02.909Z,97177.55
2018-04-08T16:54:30.376Z,97180.50
2018-04-08T16:56:57.975Z,97195.23
2018-04-08T16:59:25.452Z,97194.18
2018-04-08T17:01:55.341Z,97192.55
2018-04-08T17:04:22.941Z,97195.22
2018-04-08T17:06:50.435Z,97192.02
2018-04-08T17:09:17.942Z,97194.14
2018-04-08T17:11:45.511Z,97194.70
2018-04-08T17:14:12.985Z,97195.69
2018-04-08T17:16:40.472Z,97196.17
2018-04-08T17:19:07.929Z,97194.34
2018-04-08T17:21:35.395Z,97196.06
2018-04-08T17:24:02.877Z,97195.75
2018-04-08T17:26:30.358Z,97193.88
2018-04-08T17:28:57.849Z,97191.16
2018-04-08T17:31:25.428Z,97198.19
2018-04-08T17:33:52.940Z,97196.94
2018-04-08T17:36:20.431Z,97208.63
2018-04-08T17:38:47.925Z,97205.55
2018-04-08T17:41:15.413Z,97207.23
2018-04-08T17:43:42.930Z,97211.28
2018-04-08T17:46:10.392Z,97215.30
2018-04-08T17:48:37.895Z,97211.05
2018-04-08T17:51:05.358Z,97217.97
2018-04-08T17:53:32.889Z,97218.22
2018-04-08T17:56:00.346Z,97226.23
2018-04-08T17:58:27.826Z,97231.33
2018-04-08T18:00:55.306Z,97231.67
2018-04-08T18:03:22.934Z,97230.84
2018-04-08T18:05:50.420Z,97241.09
2018-04-08T18:08:17.940Z,97233.23
2018-04-08T18:10:45.501Z,97238.88
2018-04-08T18:13:13.002Z,97243.55
2018-04-08T18:15:40.488Z,97240.98
2018-04-08T18:18:08.057Z,97250.30
2018-04-08T18:20:35.531Z,97248.26
2018-04-08T18:23:03.006Z,97250.96
2018-04-08T18:25:30.474Z,97248.52
2018-04-08T18:27:57.936Z,97253.45
2018-04-08T18:30:25.539Z,97251.97
2018-04-08T18:32:53.072Z,97257.83
2018-04-08T18:35:20.591Z,97257.08
2018-04-08T18:37:48.150Z,97258.57
2018-04-08T18:40:15.646Z,97261.74
2018-04-08T18:42:43.188Z,97271.39
2018-04-08T18:45:10.680Z,97273.92
2018-04-08T18:47:39.324Z,97272.73
2018-04-08T18:50:06.920Z,97269.62
2018-04-08T18:52:34.497Z,97272.44
2018-04-08T18:55:07.361Z,97275.34
2018-04-08T18:57:34.874Z,97277.81
2018-04-08T19:00:02.451Z,97278.37
2018-04-08T19:02:30.087Z,97280.38
2018-04-08T19:05:01.279Z,97287.86
2018-04-08T19:07:28.749Z,97289.53
2018-04-08T19:09:56.218Z,97290.52
2018-04-08T19:12:23.736Z,97288.09
2018-04-08T19:14:56.868Z,97290.38
2018-04-08T19:17:29.976Z,97292.08
2018-04-08T19:19:57.565Z,97292.72
2018-04-08T19:22:26.180Z,97295.49
2018-04-08T19:24:54.498Z,97289.05
2018-04-08T19:27:27.669Z,97293.02
2018-04-08T19:29:55.138Z,97292.06
2018-04-08T19:32:22.641Z,97289.34
2018-04-08T19:37:23.555Z,97292.19
2018-04-08T19:39:51.340Z,97292.55
2018-04-08T19:42:18.817Z,97292.37
2018-04-08T19:44:46.462Z,97286.83
2018-04-08T19:47:13.971Z,97287.81
2018-04-08T19:49:41.476Z,97283.42
2018-04-08T19:52:08.997Z,97281.17
2018-04-08T19:54:36.614Z,97287.64
2018-04-08T19:57:04.333Z,97286.94
2018-04-08T19:59:32.137Z,97285.39
2018-04-08T20:02:00.050Z,97285.31
2018-04-08T20:04:28.810Z,97286.60
2018-04-08T20:06:59.183Z,97287.01
2018-04-08T20:09:26.971Z,97293.94
2018-04-08T20:11:54.463Z,97294.72
2018-04-08T20:14:23.229Z,97292.19
2018-04-08T20:16:50.744Z,97293.60
2018-04-08T20:19:18.295Z,97294.91
2018-04-08T20:21:46.477Z,97288.80
2018-04-08T20:24:14.286Z,97289.02
2018-04-08T20:26:41.759Z,97289.29
2018-04-08T20:29:09.495Z,97290.13
2018-04-08T20:31:37.157Z,97289.61
2018-04-08T20:34:04.629Z,97291.89
2018-04-08T20:36:32.121Z,97292.98
2018-04-08T20:38:59.666Z,97294.24
2018-04-08T20:41:27.322Z,97291.59
2018-04-08T20:43:54.827Z,97297.63
2018-04-08T20:46:22.499Z,97295.41
2018-04-08T20:48:49.991Z,97298.84
2018-04-08T20:51:17.526Z,97291.41
2018-04-08T20:53:45.137Z,97295.70
2018-04-08T20:56:12.630Z,97290.11
2018-04-08T20:58:40.137Z,97299.45
2018-04-08T21:01:07.642Z,97294.81
2018-04-08T21:03:35.131Z,97296.64
2018-04-08T21:06:02.628Z,97294.55
2018-04-08T21:08:30.112Z,97294.31
2018-04-08T21:10:57.665Z,97287.44
2018-04-08T21:13:25.436Z,97285.42
2018-04-08T21:15:52.912Z,97287.36
2018-04-08T21:18:20.394Z,97286.22
2018-04-08T21:20:47.878Z,97290.89
2018-04-08T21:23:15.379Z,97290.23
2018-04-08T21:25:42.870Z,97287.58
2018-04-08T21:28:10.359Z,97287.95
2018-04-08T21:30:37.938Z,97289.01
2018-04-08T21:33:05.416Z,97288.00
2018-04-08T21:35:32.897Z,97281.68
2018-04-08T21:38:00.386Z,97288.98
2018-04-08T21:40:27.874Z,97283.86
2018-04-08T21:42:55.434Z,97289.34
2018-04-08T21:45:23.007Z,97290.33
2018-04-08T21:47:50.485Z,97282.20
2018-04-08T21:50:17.956Z,97278.00
2018-04-08T21:52:45.524Z,97278.61
2018-04-08T21:55:13.021Z,97275.51
2018-04-08T21:57:40.492Z,97277.94
2018-04-08T22:00:07.984Z,97277.24
2018-04-08T22:02:35.667Z,97271.95
2018-04-08T22:05:03.144Z,97269.91
2018-04-08T22:07:30.650Z,97264.73
2018-04-08T22:09:58.153Z,97261.48
2018-04-08T22:12:25.614Z,97255.99
2018-04-08T22:14:53.255Z,97258.84
2018-04-08T22:17:20.735Z,97262.36
2018-04-08T22:19:48.251Z,97275.13
2018-04-08T22:22:15.741Z,97272.59
2018-04-08T22:24:43.200Z,97283.33
2018-04-08T22:27:10.682Z,97276.82
2018-04-08T22:29:38.167Z,97275.92
2018-04-08T22:32:05.722Z,97276.62
2018-04-08T22:34:33.229Z,97268.52
2018-04-08T22:37:00.719Z,97269.64
2018-04-08T22:39:28.197Z,97264.52
2018-04-08T22:41:55.715Z,97263.19
2018-04-08T22:44:23.394Z,97271.50
2018-04-08T22:46:50.895Z,97272.70
2018-04-08T22:49:18.386Z,97285.45
2018-04-08T22:51:45.844Z,97282.93
2018-04-08T22:54:13.355Z,97283.22
2018-04-08T22:56:40.897Z,97280.45
2018-04-08T22:59:08.421Z,97283.06
2018-04-08T23:01:36.160Z,97282.52
2018-04-08T23:04:03.779Z,97282.62
2018-04-08T23:06:31.268Z,97279.97
2018-04-08T23:08:58.747Z,97276.80
2018-04-08T23:11:26.342Z,97280.39
2018-04-08T23:13:53.820Z,97278.00
2018-04-08T23:16:21.306Z,97289.92
2018-04-08T23:18:48.786Z,97286.90
2018-04-08T23:21:16.268Z,97287.44
2018-04-08T23:23:43.847Z,97285.08
2018-04-08T23:26:11.308Z,97287.00
2018-04-08T23:28:38.933Z,97286.77
2018-04-08T23:31:06.424Z,97279.17
2018-04-08T23:33:33.900Z,97283.52
2018-04-08T23:36:01.385Z,97279.11
2018-04-08T23:38:28.885Z,97273.91
2018-04-08T23:40:56.367Z,97272.92
2018-04-08T23:43:23.861Z,97273.11
2018-04-08T23:45:51.363Z,97273.41
2018-04-08T23:48:18.943Z,97272.57
2018-04-08T23:50:46.462Z,97270.52
2018-04-08T23:53:13.958Z,97269.50
2018-04-08T23:55:41.453Z,97267.52
2018-04-08T23:58:08.977Z,97269.17
